createdAt,value
2023-10-23T00:01:50.152Z,5.13
2023-10-23T00:04:17.509Z,6.03
2023-10-23T00:06:44.772Z,4.72
2023-10-23T00:09:12.899Z,5.88
2023-10-23T00:11:39.919Z,5.93
2023-10-23T00:14:07.061Z,5.50
2023-10-23T00:16:34.186Z,5.45
2023-10-23T00:19:01.430Z,4.97
2023-10-23T00:21:28.481Z,5.05
2023-10-23T00:23:55.611Z,6.88
2023-10-23T00:26:22.708Z,7.15
2023-10-23T00:28:50.142Z,6.03
2023-10-23T00:31:17.396Z,6.75
2023-10-23T00:33:44.741Z,5.72
2023-10-23T00:36:12.067Z,5.53
2023-10-23T00:38:39.182Z,4.82
2023-10-23T00:41:06.264Z,7.82
2023-10-23T00:43:35.215Z,8.25
2023-10-23T00:46:03.141Z,7.22
2023-10-23T00:48:30.372Z,7.32
2023-10-23T00:51:00.006Z,4.95
2023-10-23T00:53:29.298Z,4.20
2023-10-23T00:55:58.009Z,5.07
2023-10-23T00:58:27.085Z,5.85
2023-10-23T01:00:55.690Z,6.13
2023-10-23T01:03:23.152Z,6.85
2023-10-23T01:05:50.793Z,7.60
2023-10-23T01:08:17.937Z,4.88
2023-10-23T01:10:45.094Z,6.17
2023-10-23T01:13:12.179Z,5.37
2023-10-23T01:15:39.333Z,7.07
2023-10-23T01:18:06.678Z,5.15
2023-10-23T01:20:34.271Z,5.37
2023-10-23T01:23:02.371Z,6.13
2023-10-23T01:25:29.846Z,6.32
2023-10-23T01:27:57.345Z,8.00
2023-10-23T01:30:24.410Z,7.63
2023-10-23T01:32:51.634Z,4.53
2023-10-23T01:35:18.786Z,5.15
2023-10-23T01:37:46.571Z,5.63
2023-10-23T01:40:13.922Z,3.63
2023-10-23T01:42:42.433Z,4.72
2023-10-23T01:45:09.768Z,4.50
2023-10-23T01:47:36.951Z,5.60
2023-10-23T01:50:04.540Z,5.80
2023-10-23T01:52:31.683Z,5.13
2023-10-23T01:55:02.925Z,5.60
2023-10-23T01:57:30.727Z,5.03
2023-10-23T02:00:05.312Z,7.40
2023-10-23T02:02:34.563Z,5.03
2023-10-23T02:05:01.923Z,4.32
2023-10-23T02:07:29.149Z,4.18
2023-10-23T02:09:58.314Z,4.18
2023-10-23T02:12:25.632Z,4.28
2023-10-23T02:14:54.044Z,4.15
2023-10-23T02:17:21.960Z,5.70
2023-10-23T02:19:49.763Z,4.45
2023-10-23T02:22:18.049Z,4.78
2023-10-23T02:24:45.204Z,4.63
2023-10-23T02:27:12.532Z,5.35
2023-10-23T02:29:41.621Z,4.95
2023-10-23T02:32:09.325Z,4.15
2023-10-23T02:34:37.644Z,5.00
2023-10-23T02:37:05.384Z,5.47
2023-10-23T02:39:32.562Z,5.60
2023-10-23T02:42:00.795Z,4.28
2023-10-23T02:44:28.002Z,3.35
2023-10-23T02:46:55.198Z,5.20
2023-10-23T02:49:22.456Z,3.50
2023-10-23T02:51:49.714Z,3.60
2023-10-23T02:54:17.497Z,3.58
2023-10-23T02:56:44.719Z,4.32
2023-10-23T02:59:12.068Z,4.10
2023-10-23T03:01:39.340Z,4.00
2023-10-23T03:04:06.816Z,3.30
2023-10-23T03:06:34.014Z,4.50
2023-10-23T03:09:01.193Z,4.18
2023-10-23T03:11:28.357Z,4.53
2023-10-23T03:13:55.450Z,6.25
2023-10-23T03:16:22.671Z,5.03
2023-10-23T03:18:49.906Z,4.65
2023-10-23T03:21:17.028Z,5.80
2023-10-23T03:23:44.328Z,4.22
2023-10-23T03:26:11.463Z,4.50
2023-10-23T03:28:38.553Z,3.63
2023-10-23T03:31:05.654Z,3.35
2023-10-23T03:33:33.784Z,4.63
2023-10-23T03:36:01.100Z,4.82
2023-10-23T03:38:28.263Z,4.55
2023-10-23T03:40:57.697Z,5.00
2023-10-23T03:43:24.753Z,4.78
2023-10-23T03:45:52.020Z,4.10
2023-10-23T03:48:19.610Z,3.33
2023-10-23T03:50:46.821Z,4.10
2023-10-23T03:53:13.915Z,4.90
2023-10-23T03:55:41.236Z,6.40
2023-10-23T03:58:08.689Z,3.72
2023-10-23T04:00:35.870Z,5.45
2023-10-23T04:03:03.110Z,4.43
2023-10-23T04:05:31.759Z,5.10
2023-10-23T04:07:59.458Z,4.28
2023-10-23T04:10:26.559Z,4.88
2023-10-23T04:12:53.720Z,7.32
2023-10-23T04:15:21.050Z,4.13
2023-10-23T04:17:48.735Z,4.85
2023-10-23T04:20:15.905Z,5.75
2023-10-23T04:22:43.292Z,4.53
2023-10-23T04:25:10.792Z,5.65
2023-10-23T04:27:38.145Z,6.60
2023-10-23T04:30:05.668Z,6.77
2023-10-23T04:32:32.947Z,6.57
2023-10-23T04:35:00.478Z,6.90
2023-10-23T04:37:27.613Z,7.20
2023-10-23T04:39:54.823Z,6.65
2023-10-23T04:42:21.986Z,6.55
2023-10-23T04:44:49.589Z,6.82
2023-10-23T04:47:16.741Z,6.38
2023-10-23T04:49:43.958Z,7.95
2023-10-23T04:52:11.115Z,6.20
2023-10-23T04:54:38.267Z,5.75
2023-10-23T04:57:05.513Z,6.38
2023-10-23T04:59:35.746Z,6.28
2023-10-23T05:02:04.100Z,8.55
2023-10-23T05:04:32.772Z,7.38
2023-10-23T05:07:00.406Z,7.57
2023-10-23T05:09:27.684Z,6.10
2023-10-23T05:11:54.881Z,6.55
2023-10-23T05:14:21.938Z,5.20
2023-10-23T05:16:49.063Z,5.28
2023-10-23T05:19:16.166Z,5.18
2023-10-23T05:21:43.333Z,4.50
2023-10-23T05:24:10.598Z,7.47
2023-10-23T05:26:37.738Z,5.07
2023-10-23T05:29:04.881Z,6.18
2023-10-23T05:31:32.184Z,8.07
2023-10-23T05:33:59.453Z,5.20
2023-10-23T05:36:27.056Z,6.15
2023-10-23T05:38:54.199Z,6.03
2023-10-23T05:41:21.374Z,4.65
2023-10-23T05:43:48.515Z,7.13
2023-10-23T05:46:16.511Z,5.25
2023-10-23T05:48:43.819Z,4.22
2023-10-23T05:51:10.953Z,5.13
2023-10-23T05:53:38.061Z,5.20
2023-10-23T05:56:07.971Z,3.95
2023-10-23T05:58:36.167Z,7.80
2023-10-23T06:01:07.171Z,4.43
2023-10-23T06:03:35.268Z,4.43
2023-10-23T06:06:02.664Z,7.43
2023-10-23T06:08:29.731Z,7.47
2023-10-23T06:10:56.923Z,6.80
2023-10-23T06:13:24.058Z,6.75
2023-10-23T06:15:51.483Z,8.07
2023-10-23T06:18:18.543Z,5.25
2023-10-23T06:20:46.243Z,6.23
2023-10-23T06:23:13.327Z,6.60
2023-10-23T06:25:40.992Z,5.50
2023-10-23T06:28:08.801Z,5.13
2023-10-23T06:30:37.595Z,5.70
2023-10-23T06:33:05.020Z,5.00
2023-10-23T06:35:32.333Z,6.70
2023-10-23T06:37:59.734Z,6.57
2023-10-23T06:40:26.848Z,7.35
2023-10-23T06:42:53.983Z,5.30
2023-10-23T06:45:21.136Z,4.93
2023-10-23T06:47:50.513Z,4.57
2023-10-23T06:50:19.016Z,4.73
2023-10-23T06:52:46.416Z,5.13
2023-10-23T06:55:14.138Z,7.45
2023-10-23T06:57:41.332Z,6.73
2023-10-23T07:00:08.845Z,5.77
2023-10-23T07:02:36.070Z,5.97
2023-10-23T07:05:03.149Z,6.55
2023-10-23T07:07:30.966Z,6.68
2023-10-23T07:10:01.642Z,6.20
2023-10-23T07:12:29.078Z,6.30
2023-10-23T07:14:56.291Z,4.15
2023-10-23T07:17:23.541Z,4.85
2023-10-23T07:19:52.076Z,6.22
2023-10-23T07:22:19.303Z,7.22
2023-10-23T07:24:46.402Z,7.03
2023-10-23T07:27:16.513Z,7.25
2023-10-23T07:29:45.163Z,5.60
2023-10-23T07:32:12.945Z,8.93
2023-10-23T07:34:40.089Z,8.55
2023-10-23T07:37:07.392Z,7.70
2023-10-23T07:39:36.329Z,10.95
2023-10-23T07:42:04.263Z,11.02
2023-10-23T07:44:33.032Z,7.80
2023-10-23T07:47:00.248Z,8.68
2023-10-23T07:49:27.413Z,7.38
2023-10-23T07:51:54.866Z,8.73
2023-10-23T07:54:21.929Z,7.60
2023-10-23T07:56:49.101Z,9.65
2023-10-23T07:59:16.432Z,7.55
2023-10-23T08:01:43.625Z,8.73
2023-10-23T08:04:11.079Z,8.40
2023-10-23T08:06:38.420Z,5.80
2023-10-23T08:09:07.553Z,6.70
2023-10-23T08:11:34.673Z,5.30
2023-10-23T08:14:01.739Z,5.70
2023-10-23T08:16:28.951Z,4.68
2023-10-23T08:18:58.424Z,6.18
2023-10-23T08:21:29.368Z,5.63
2023-10-23T08:23:59.618Z,6.30
2023-10-23T08:26:26.734Z,7.55
2023-10-23T08:29:02.503Z,4.22
2023-10-23T08:34:00.583Z,5.82
2023-10-23T08:36:27.881Z,5.03
2023-10-23T08:38:55.073Z,5.07
2023-10-23T08:41:22.648Z,5.07
2023-10-23T08:43:49.818Z,6.90
2023-10-23T08:46:17.047Z,3.90
2023-10-23T08:48:44.545Z,5.90
2023-10-23T08:51:11.723Z,5.80
2023-10-23T08:53:45.141Z,5.10
2023-10-23T08:56:15.019Z,5.60
2023-10-23T08:58:46.841Z,4.32
2023-10-23T09:01:14.590Z,4.35
2023-10-23T09:04:04.554Z,4.82
2023-10-23T09:06:29.115Z,4.20
2023-10-23T09:08:56.401Z,5.50
2023-10-23T09:11:38.253Z,5.28
2023-10-23T09:14:05.708Z,6.05
2023-10-23T09:16:32.905Z,4.30
2023-10-23T09:19:00.131Z,5.22
2023-10-23T09:21:27.389Z,5.07
2023-10-23T09:23:55.608Z,5.15
2023-10-23T09:26:23.108Z,4.25
2023-10-23T09:28:51.491Z,4.30
2023-10-23T09:31:18.749Z,4.30
2023-10-23T09:33:46.707Z,4.40
2023-10-23T09:36:14.335Z,3.70
2023-10-23T09:38:43.367Z,5.90
2023-10-23T09:41:10.791Z,4.40
2023-10-23T09:43:45.018Z,5.15
2023-10-23T09:46:13.545Z,5.20
2023-10-23T09:48:42.669Z,6.35
2023-10-23T09:51:13.496Z,4.50
2023-10-23T09:53:40.883Z,4.10
2023-10-23T09:56:12.088Z,3.40
2023-10-23T09:58:40.603Z,4.97
2023-10-23T10:01:08.869Z,5.53
2023-10-23T10:03:36.817Z,4.27
2023-10-23T10:06:10.566Z,4.60
2023-10-23T10:08:39.343Z,4.40
2023-10-23T10:11:07.058Z,4.07
2023-10-23T10:13:35.447Z,3.13
2023-10-23T10:16:05.471Z,4.85
2023-10-23T10:18:34.833Z,4.05
2023-10-23T10:21:06.195Z,3.53
2023-10-23T10:23:36.220Z,4.60
2023-10-23T10:26:05.204Z,5.30
2023-10-23T10:28:32.315Z,4.50
2023-10-23T10:30:59.175Z,3.27
2023-10-23T10:34:26.842Z,6.07
2023-10-23T10:36:16.064Z,4.13
2023-10-23T10:39:04.060Z,5.40
2023-10-23T10:41:36.920Z,4.82
2023-10-23T10:44:11.475Z,3.57
2023-10-23T10:46:42.128Z,4.47
2023-10-23T10:49:11.383Z,4.63
2023-10-23T10:51:38.790Z,5.28
2023-10-23T10:54:09.119Z,4.73
2023-10-23T10:56:36.351Z,5.13
2023-10-23T10:59:04.643Z,4.95
2023-10-23T11:01:32.197Z,4.38
2023-10-23T11:03:59.620Z,5.68
2023-10-23T11:06:26.766Z,4.43
2023-10-23T11:08:55.955Z,4.18
2023-10-23T11:11:23.294Z,4.18
2023-10-23T11:13:50.437Z,3.92
2023-10-23T11:16:17.791Z,3.47
2023-10-23T11:18:45.207Z,4.67
2023-10-23T11:21:12.435Z,5.40
2023-10-23T11:23:39.715Z,4.28
2023-10-23T11:26:07.223Z,6.85
2023-10-23T11:28:34.389Z,5.25
2023-10-23T11:31:01.617Z,3.92
2023-10-23T11:33:28.938Z,5.60
2023-10-23T11:35:56.041Z,4.82
2023-10-23T11:38:25.537Z,5.55
2023-10-23T11:40:54.552Z,4.95
2023-10-23T11:43:21.767Z,7.20
2023-10-23T11:45:49.294Z,6.67
2023-10-23T11:48:16.840Z,5.20
2023-10-23T11:50:44.189Z,4.15
2023-10-23T11:53:11.337Z,3.83
2023-10-23T11:55:39.194Z,6.65
2023-10-23T11:58:08.262Z,4.93
2023-10-23T12:00:36.248Z,5.28
2023-10-23T12:03:05.555Z,4.47
2023-10-23T12:05:32.775Z,4.05
2023-10-23T12:07:59.877Z,4.95
2023-10-23T12:10:28.737Z,6.53
2023-10-23T12:12:56.545Z,4.32
2023-10-23T12:15:24.826Z,4.25
2023-10-23T12:17:52.237Z,5.45
2023-10-23T12:20:22.948Z,3.42
2023-10-23T12:22:51.524Z,4.00
2023-10-23T12:25:18.975Z,4.88
2023-10-23T12:27:46.284Z,4.20
2023-10-23T12:30:16.759Z,6.10
2023-10-23T12:33:17.280Z,3.67
2023-10-23T12:35:37.682Z,4.45
2023-10-23T12:38:04.427Z,3.55
2023-10-23T12:40:35.109Z,3.17
2023-10-23T12:43:05.004Z,4.82
2023-10-23T12:45:32.620Z,3.40
2023-10-23T12:48:00.023Z,3.55
2023-10-23T12:50:27.183Z,5.25
2023-10-23T12:52:54.410Z,2.15
2023-10-23T12:55:21.793Z,2.30
2023-10-23T12:57:49.097Z,3.28
2023-10-23T13:00:16.423Z,3.37
2023-10-23T13:02:44.796Z,3.92
2023-10-23T13:05:12.364Z,4.13
2023-10-23T13:07:39.751Z,3.65
2023-10-23T13:10:07.306Z,6.25
2023-10-23T13:12:35.945Z,5.05
2023-10-23T13:15:04.154Z,3.00
2023-10-23T13:17:31.565Z,3.08
2023-10-23T13:19:58.849Z,2.45
2023-10-23T13:22:48.862Z,4.05
2023-10-23T13:25:19.360Z,2.80
2023-10-23T13:27:46.738Z,2.83
2023-10-23T13:30:13.971Z,3.70
2023-10-23T13:32:41.178Z,3.42
2023-10-23T13:35:09.206Z,1.80
2023-10-23T13:37:36.539Z,2.53
2023-10-23T13:40:08.206Z,2.67
2023-10-23T13:42:36.064Z,2.73
2023-10-23T13:45:03.222Z,3.15
2023-10-23T13:47:30.403Z,3.30
2023-10-23T13:49:59.328Z,1.55
2023-10-23T13:52:26.833Z,2.30
2023-10-23T13:54:54.151Z,1.80
2023-10-23T13:57:21.396Z,5.18
2023-10-23T13:59:49.409Z,3.38
2023-10-23T14:02:16.595Z,5.70
2023-10-23T14:04:43.769Z,2.70
2023-10-23T14:07:13.370Z,4.07
2023-10-23T14:09:46.132Z,3.95
2023-10-23T14:12:16.161Z,1.85
2023-10-23T14:14:43.432Z,2.92
2023-10-23T14:17:10.877Z,3.00
2023-10-23T14:19:46.856Z,3.05
2023-10-23T14:22:15.532Z,2.35
2023-10-23T14:24:42.956Z,2.40
2023-10-23T14:27:10.414Z,2.97
2023-10-23T14:29:38.260Z,2.33
2023-10-23T14:32:06.176Z,4.60
2023-10-23T14:34:33.514Z,2.95
2023-10-23T14:37:00.836Z,1.80
2023-10-23T14:39:28.922Z,1.70
2023-10-23T14:41:56.373Z,2.53
2023-10-23T14:44:24.894Z,2.42
2023-10-23T14:46:52.529Z,1.60
2023-10-23T14:49:20.291Z,1.90
2023-10-23T14:51:47.524Z,2.10
2023-10-23T14:54:14.681Z,3.88
2023-10-23T14:56:44.854Z,2.75
2023-10-23T14:59:12.014Z,4.43
2023-10-23T15:01:39.288Z,2.78
2023-10-23T15:04:06.638Z,1.80
2023-10-23T15:06:33.923Z,4.25
2023-10-23T15:09:01.120Z,2.65
2023-10-23T15:11:28.272Z,2.63
2023-10-23T15:13:55.458Z,4.10
2023-10-23T15:16:22.601Z,3.30
2023-10-23T15:18:52.963Z,2.73
2023-10-23T15:21:20.413Z,2.45
2023-10-23T15:23:48.732Z,8.35
2023-10-23T15:26:15.913Z,2.60
2023-10-23T15:28:43.183Z,4.13
2023-10-23T15:31:10.443Z,3.40
2023-10-23T15:33:37.973Z,5.40
2023-10-23T15:36:06.281Z,9.48
2023-10-23T15:38:33.896Z,6.10
2023-10-23T15:41:06.934Z,7.35
2023-10-23T15:43:34.370Z,6.93
2023-10-23T15:46:01.595Z,10.88
2023-10-23T15:48:28.714Z,9.70
2023-10-23T15:50:57.668Z,4.68
2023-10-23T15:53:27.634Z,6.57
2023-10-23T15:55:55.463Z,10.80
2023-10-23T15:58:23.805Z,10.55
2023-10-23T16:00:51.798Z,5.05
2023-10-23T16:03:19.164Z,3.90
2023-10-23T16:05:46.391Z,3.20
2023-10-23T16:08:14.115Z,4.68
2023-10-23T16:10:46.147Z,7.15
2023-10-23T16:13:13.647Z,6.68
2023-10-23T16:15:42.756Z,4.38
2023-10-23T16:18:11.690Z,3.50
2023-10-23T16:20:39.344Z,8.23
2023-10-23T16:23:06.913Z,5.10
2023-10-23T16:25:41.140Z,11.73
2023-10-23T16:28:08.900Z,13.07
2023-10-23T16:30:36.666Z,4.15
2023-10-23T16:33:04.058Z,4.23
2023-10-23T16:35:31.295Z,3.40
2023-10-23T16:37:58.432Z,8.07
2023-10-23T16:40:26.147Z,7.90
2023-10-23T16:42:53.352Z,8.37
2023-10-23T16:45:20.607Z,6.30
2023-10-23T16:47:47.939Z,5.35
2023-10-23T16:50:15.189Z,5.03
2023-10-23T16:52:45.949Z,5.35
2023-10-23T16:55:13.372Z,5.13
2023-10-23T16:57:42.172Z,5.13
2023-10-23T17:00:13.542Z,4.72
2023-10-23T17:02:41.311Z,5.68
2023-10-23T17:05:11.509Z,4.87
2023-10-23T17:07:40.053Z,4.82
2023-10-23T17:10:07.550Z,5.13
2023-10-23T17:12:35.296Z,5.13
2023-10-23T17:15:03.491Z,4.75
2023-10-23T17:17:30.778Z,5.63
2023-10-23T17:19:58.218Z,5.43
2023-10-23T17:22:25.436Z,5.22
2023-10-23T17:24:52.619Z,3.88
2023-10-23T17:27:20.470Z,4.13
2023-10-23T17:29:47.716Z,5.45
2023-10-23T17:32:15.075Z,5.63
2023-10-23T17:34:42.398Z,4.10
2023-10-23T17:37:09.571Z,5.07
2023-10-23T17:39:36.817Z,6.70
2023-10-23T17:42:04.087Z,6.88
2023-10-23T17:44:31.849Z,7.15
2023-10-23T17:46:59.168Z,7.57
2023-10-23T17:49:26.487Z,5.57
2023-10-23T17:51:55.663Z,6.60
2023-10-23T17:54:23.130Z,6.20
2023-10-23T17:56:50.371Z,4.78
2023-10-23T17:59:17.438Z,4.53
2023-10-23T18:01:44.775Z,4.32
2023-10-23T18:04:12.605Z,5.03
2023-10-23T18:06:40.365Z,4.97
2023-10-23T18:09:07.766Z,4.85
2023-10-23T18:11:35.097Z,5.38
2023-10-23T18:14:02.398Z,3.70
2023-10-23T18:16:29.771Z,5.13
2023-10-23T18:18:57.282Z,4.30
2023-10-23T18:21:24.562Z,4.65
2023-10-23T18:23:52.603Z,5.65
2023-10-23T18:26:19.840Z,5.40
2023-10-23T18:28:47.796Z,5.60
2023-10-23T18:31:16.469Z,4.88
2023-10-23T18:33:43.779Z,6.03
2023-10-23T18:36:17.273Z,5.80
2023-10-23T18:38:46.114Z,4.78
2023-10-23T18:41:18.048Z,4.72
2023-10-23T18:43:46.842Z,4.53
2023-10-23T18:46:14.358Z,5.28
2023-10-23T18:48:42.624Z,3.95
2023-10-23T18:51:12.991Z,5.15
2023-10-23T18:53:41.312Z,4.93
2023-10-23T18:56:08.680Z,4.95
2023-10-23T18:58:36.082Z,4.22
2023-10-23T19:01:03.414Z,4.43
2023-10-23T19:03:31.527Z,4.80
2023-10-23T19:06:00.657Z,6.18
2023-10-23T19:08:29.069Z,7.65
2023-10-23T19:10:56.425Z,5.70
2023-10-23T19:13:23.649Z,4.22
2023-10-23T19:15:59.078Z,5.07
2023-10-23T19:18:29.408Z,6.47
2023-10-23T19:21:00.145Z,7.97
2023-10-23T19:23:27.410Z,6.47
2023-10-23T19:25:54.596Z,8.40
2023-10-23T19:28:22.866Z,6.88
2023-10-23T19:30:50.146Z,7.68
2023-10-23T19:33:17.585Z,8.15
2023-10-23T19:35:44.958Z,7.93
2023-10-23T19:38:13.234Z,9.10
2023-10-23T19:40:42.525Z,11.88
2023-10-23T19:43:16.714Z,10.23
2023-10-23T19:45:44.846Z,9.50
2023-10-23T19:48:13.183Z,7.18
2023-10-23T19:50:43.271Z,8.25
2023-10-23T19:53:13.689Z,7.25
2023-10-23T19:55:45.842Z,7.10
2023-10-23T19:58:14.616Z,7.82
2023-10-23T20:00:41.807Z,6.82
2023-10-23T20:03:09.051Z,6.30
2023-10-23T20:05:36.231Z,4.85
2023-10-23T20:08:03.386Z,5.07
2023-10-23T20:10:30.854Z,10.88
2023-10-23T20:13:00.093Z,13.17
2023-10-23T20:15:27.914Z,12.20
2023-10-23T20:17:56.120Z,11.10
2023-10-23T20:20:23.871Z,9.95
2023-10-23T20:22:51.176Z,8.07
2023-10-23T20:25:18.604Z,7.45
2023-10-23T20:27:46.046Z,6.57
2023-10-23T20:30:13.535Z,5.95
2023-10-23T20:32:41.072Z,5.10
2023-10-23T20:35:08.564Z,5.47
2023-10-23T20:37:36.072Z,6.70
2023-10-23T20:40:04.787Z,6.40
2023-10-23T20:42:36.256Z,8.82
2023-10-23T20:45:03.957Z,11.30
2023-10-23T20:47:31.075Z,12.05
2023-10-23T20:49:58.786Z,11.43
2023-10-23T20:52:27.462Z,10.45
2023-10-23T20:54:54.721Z,9.70
2023-10-23T20:57:21.823Z,8.82
2023-10-23T20:59:48.701Z,7.90
2023-10-23T21:02:16.465Z,7.37
2023-10-23T21:04:44.189Z,9.23
2023-10-23T21:07:11.612Z,6.82
2023-10-23T21:09:39.129Z,6.43
2023-10-23T21:12:06.882Z,7.68
2023-10-23T21:14:34.010Z,5.53
2023-10-23T21:17:03.318Z,5.90
2023-10-23T21:19:30.611Z,7.65
2023-10-23T21:22:00.258Z,5.57
2023-10-23T21:24:27.490Z,4.93
2023-10-23T21:26:54.627Z,6.63
2023-10-23T21:29:23.613Z,7.00
2023-10-23T21:31:51.721Z,8.30
2023-10-23T21:34:19.416Z,6.43
2023-10-23T21:36:47.225Z,5.83
2023-10-23T21:39:14.366Z,6.45
2023-10-23T21:41:42.310Z,5.25
2023-10-23T21:44:10.342Z,6.23
2023-10-23T21:46:37.802Z,4.88
2023-10-23T21:49:06.375Z,5.15
2023-10-23T21:51:33.683Z,8.90
2023-10-23T21:54:00.972Z,5.50
2023-10-23T21:56:38.324Z,4.87
2023-10-23T21:59:19.035Z,5.32
2023-10-23T22:01:46.983Z,4.47
2023-10-23T22:04:14.611Z,6.82
2023-10-23T22:06:41.890Z,5.28
2023-10-23T22:09:09.288Z,5.90
2023-10-23T22:11:36.551Z,6.15
2023-10-23T22:14:05.174Z,6.22
2023-10-23T22:16:32.363Z,4.68
2023-10-23T22:18:59.591Z,4.18
2023-10-23T22:21:26.902Z,5.53
2023-10-23T22:23:54.090Z,6.20
2023-10-23T22:26:21.202Z,4.30
2023-10-23T22:28:48.332Z,4.43
2023-10-23T22:31:15.556Z,5.78
2023-10-23T22:33:42.857Z,6.18
2023-10-23T22:36:10.028Z,4.60
2023-10-23T22:38:37.157Z,5.18
2023-10-23T22:41:05.097Z,6.20
2023-10-23T22:43:32.576Z,6.55
2023-10-23T22:46:03.519Z,4.80
2023-10-23T22:48:31.904Z,5.50
2023-10-23T22:50:59.223Z,4.70
2023-10-23T22:53:26.850Z,5.82
2023-10-23T22:55:54.887Z,5.13
2023-10-23T22:58:28.854Z,5.50
2023-10-23T23:00:56.210Z,4.45
2023-10-23T23:03:23.532Z,5.20
2023-10-23T23:05:52.775Z,7.72
2023-10-23T23:08:20.208Z,6.97
2023-10-23T23:10:47.510Z,4.25
2023-10-23T23:13:14.799Z,5.03
2023-10-23T23:15:46.543Z,6.55
2023-10-23T23:18:14.936Z,6.17
2023-10-23T23:20:42.660Z,6.13
2023-10-23T23:23:09.887Z,4.97
2023-10-23T23:25:37.624Z,6.05
2023-10-23T23:28:04.949Z,5.40
2023-10-23T23:30:32.101Z,5.97
2023-10-23T23:32:59.331Z,5.43
2023-10-23T23:35:26.503Z,5.18
2023-10-23T23:37:53.698Z,5.45
2023-10-23T23:40:20.903Z,4.28
2023-10-23T23:42:48.056Z,4.70
2023-10-23T23:45:15.260Z,4.50
2023-10-23T23:47:42.386Z,4.45
2023-10-23T23:50:10.024Z,6.25
2023-10-23T23:52:37.241Z,4.75
2023-10-23T23:55:04.440Z,5.07
2023-10-23T23:57:33.144Z,4.45
